Time;durP1;ratioP1;P1;durP2;ratioP2;P2;SDS_P1;SDS_P2;PMS_P1;PMS_P2;Temp;Humidity;BMP_temperature;BMP_pressure;BME280_temperature;BME280_humidity;BME280_pressure;Samples;Min_cycle;Max_cycle;Signal;HPM_P1;HPM_P2
2022/12/24 00:01:05;;;;;;;85.30;7.15;;;8.70;99.90;;;;;;5094599;28;20044;-71
2022/12/24 00:03:35;;;;;;;66.65;7.43;;;8.70;99.90;;;;;;5093923;28;20044;-71
2022/12/24 00:06:15;;;;;;;72.25;6.93;;;8.60;99.90;;;;;;5094741;28;20036;-73
2022/12/24 00:08:43;;;;;;;80.88;8.10;;;8.70;99.90;;;;;;5060431;28;20071;-73
2022/12/24 00:11:10;;;;;;;76.50;7.55;;;8.70;99.90;;;;;;5075274;28;20044;-71
2022/12/24 00:13:38;;;;;;;73.90;7.50;;;8.70;99.90;;;;;;5094752;28;20044;-72
2022/12/24 00:16:05;;;;;;;74.28;7.65;;;8.80;99.90;;;;;;5077595;28;20052;-71
2022/12/24 00:18:33;;;;;;;66.05;7.30;;;8.80;99.90;;;;;;5093649;28;20059;-72
2022/12/24 00:21:07;;;;;;;69.45;7.03;;;8.90;99.90;;;;;;5060527;28;20043;-71
2022/12/24 00:23:35;;;;;;;88.15;7.78;;;8.80;99.90;;;;;;5075754;28;20300;-73
2022/12/24 00:26:02;;;;;;;71.45;7.30;;;8.70;99.90;;;;;;5094621;28;20055;-71
2022/12/24 00:28:30;;;;;;;63.15;6.80;;;8.70;99.90;;;;;;5077606;28;20040;-72
2022/12/24 00:30:57;;;;;;;73.30;8.27;;;8.70;99.90;;;;;;5093534;28;20044;-71
2022/12/24 00:33:25;;;;;;;67.35;7.32;;;9.40;99.90;;;;;;5094508;28;20048;-72
2022/12/24 00:35:52;;;;;;;74.70;7.93;;;8.70;99.90;;;;;;5094819;28;20047;-72
2022/12/24 00:38:20;;;;;;;76.78;7.93;;;8.70;99.90;;;;;;5093313;28;20048;-70
2022/12/24 00:40:47;;;;;;;73.82;7.13;;;8.70;99.90;;;;;;5094478;28;20040;-72
2022/12/24 00:43:15;;;;;;;65.03;6.50;;;8.70;99.90;;;;;;5093739;28;20053;-73
2022/12/24 00:45:42;;;;;;;59.53;6.85;;;9.00;99.90;;;;;;5094503;28;20048;-73
2022/12/24 00:48:10;;;;;;;65.82;7.03;;;8.70;99.90;;;;;;5094853;28;20036;-71
2022/12/24 00:50:37;;;;;;;73.75;7.60;;;8.70;99.90;;;;;;5093296;28;20047;-70
2022/12/24 00:53:05;;;;;;;70.80;7.22;;;8.70;99.90;;;;;;5094277;28;20051;-71
2022/12/24 00:55:32;;;;;;;60.75;6.68;;;8.70;99.90;;;;;;5094330;28;20044;-71
2022/12/24 00:58:00;;;;;;;81.03;8.55;;;8.90;99.90;;;;;;5093160;28;20063;-71
2022/12/24 01:00:27;;;;;;;66.43;7.13;;;8.70;99.90;;;;;;5094140;28;20373;-72
2022/12/24 01:02:55;;;;;;;80.03;7.75;;;8.70;99.90;;;;;;5076703;28;20048;-71
2022/12/24 01:05:23;;;;;;;73.85;7.97;;;8.60;99.90;;;;;;5075314;28;20036;-73
2022/12/24 01:07:50;;;;;;;67.80;6.60;;;8.70;99.90;;;;;;5077166;28;20068;-71
2022/12/24 01:10:19;;;;;;;64.20;7.35;;;9.60;99.90;;;;;;5075403;28;20377;-71
2022/12/24 01:12:46;;;;;;;66.25;6.43;;;8.60;99.90;;;;;;5094161;28;20048;-72
2022/12/24 01:15:14;;;;;;;83.15;7.43;;;8.60;99.90;;;;;;5076811;28;20052;-71
2022/12/24 01:17:42;;;;;;;69.50;8.23;;;8.50;99.90;;;;;;5058730;28;20048;-72
2022/12/24 01:20:16;;;;;;;92.00;7.63;;;8.50;99.90;;;;;;5076508;28;20033;-71
2022/12/24 01:22:44;;;;;;;71.93;7.80;;;9.10;99.90;;;;;;5096521;28;20040;-72
2022/12/24 01:25:11;;;;;;;79.57;7.97;;;8.40;99.90;;;;;;5096938;28;20036;-71
2022/12/24 01:27:39;;;;;;;97.65;8.45;;;8.70;99.90;;;;;;5098084;28;20040;-72
2022/12/24 01:30:08;;;;;;;80.28;8.07;;;8.40;99.90;;;;;;5079038;28;20031;-71
2022/12/24 01:32:36;;;;;;;75.10;8.23;;;8.40;99.90;;;;;;5097608;28;20062;-71
2022/12/24 01:35:04;;;;;;;78.97;7.75;;;8.40;99.90;;;;;;5080323;28;20048;-72
2022/12/24 01:37:32;;;;;;;80.95;7.03;;;8.40;99.90;;;;;;5096420;28;20044;-71
2022/12/24 01:45:53;;;;;;;79.88;7.78;;;8.40;99.90;;;;;;5096290;28;20044;-72
2022/12/24 01:48:35;;;;;;;82.20;8.05;;;8.40;99.90;;;;;;5097468;28;20055;-72
2022/12/24 01:51:26;;;;;;;81.32;8.43;;;8.40;99.90;;;;;;5096251;28;20052;-73
2022/12/24 01:54:00;;;;;;;78.18;7.50;;;8.40;99.90;;;;;;5097879;28;20040;-70
2022/12/24 01:56:29;;;;;;;92.07;7.90;;;8.40;99.90;;;;;;5097583;28;20055;-72
2022/12/24 01:59:08;;;;;;;78.47;7.43;;;8.40;99.90;;;;;;5078362;28;20040;-71
2022/12/24 02:01:36;;;;;;;87.57;7.88;;;8.40;99.90;;;;;;5096853;28;20473;-72
2022/12/24 02:04:08;;;;;;;;;;;8.40;99.90;;;;;;5096407;28;20368;-73
2022/12/24 02:06:35;;;;;;;86.25;8.18;;;8.40;99.90;;;;;;5079819;28;19920;-70
2022/12/24 02:09:03;;;;;;;98.57;8.30;;;8.40;99.90;;;;;;5097322;28;20047;-72
2022/12/24 02:11:30;;;;;;;94.28;7.97;;;8.40;99.90;;;;;;5078161;28;20051;-71
2022/12/24 02:14:00;;;;;;;82.00;8.27;;;8.50;99.90;;;;;;5079198;28;20044;-72
2022/12/24 02:16:59;;;;;;;86.40;7.78;;;8.50;99.90;;;;;;5096921;28;20052;-72
2022/12/24 02:19:35;;;;;;;85.78;8.63;;;8.60;99.90;;;;;;5079115;28;20357;-71
2022/12/24 02:22:14;;;;;;;80.32;8.55;;;8.70;99.90;;;;;;5096853;28;20040;-73
2022/12/24 02:24:47;;;;;;;67.95;7.57;;;8.70;99.90;;;;;;5095668;28;20044;-71
2022/12/24 02:27:59;;;;;;;85.72;7.97;;;8.80;99.90;;;;;;5096770;28;20493;-73
2022/12/24 02:30:35;;;;;;;75.78;7.88;;;8.80;99.90;;;;;;5031317;28;20040;-72
2022/12/24 02:33:23;;;;;;;84.30;8.25;;;8.70;99.90;;;;;;5078544;28;20377;-71
2022/12/24 02:35:52;;;;;;;101.25;8.45;;;8.70;99.90;;;;;;5078909;28;20085;-71
2022/12/24 02:38:29;;;;;;;90.90;8.63;;;9.00;99.90;;;;;;5095320;28;20453;-72
2022/12/24 02:41:04;;;;;;;77.77;8.03;;;8.70;99.90;;;;;;5096392;28;20063;-71
2022/12/24 02:43:38;;;;;;;88.38;8.27;;;8.60;99.90;;;;;;5095316;28;20044;-72
2022/12/24 02:46:11;;;;;;;89.82;9.07;;;8.50;99.90;;;;;;5096798;28;20040;-71
2022/12/24 02:48:42;;;;;;;84.07;7.65;;;8.50;99.90;;;;;;5096383;28;20044;-70
2022/12/24 02:51:10;;;;;;;83.18;8.43;;;8.40;99.90;;;;;;5095226;28;20044;-72
2022/12/24 02:53:39;;;;;;;84.90;8.15;;;8.40;99.90;;;;;;5095962;28;20052;-72
2022/12/24 02:56:40;;;;;;;100.57;8.45;;;8.30;99.90;;;;;;5096288;28;20048;-71
2022/12/24 02:59:38;;;;;;;87.32;8.50;;;8.30;99.90;;;;;;5096159;28;20056;-73
2022/12/24 03:02:06;;;;;;;89.05;8.23;;;8.30;99.90;;;;;;5095684;28;20377;-73
2022/12/24 03:04:45;;;;;;;97.57;8.30;;;8.30;99.90;;;;;;5094895;28;20063;-73
2022/12/24 03:07:33;;;;;;;99.95;8.13;;;8.30;99.90;;;;;;5078295;28;20045;-72
2022/12/24 03:10:10;;;;;;;;;;;8.20;99.90;;;;;;5095343;28;20044;-69
2022/12/24 03:12:54;;;;;;;86.45;8.20;;;8.20;99.90;;;;;;5096176;28;19923;-72
2022/12/24 03:15:24;;;;;;;95.43;9.05;;;8.20;99.90;;;;;;5095795;28;20048;-73
2022/12/24 03:17:56;;;;;;;86.03;8.18;;;8.70;99.90;;;;;;5077056;28;20058;-72
2022/12/24 03:20:35;;;;;;;83.05;8.38;;;8.20;99.90;;;;;;5095800;28;20063;-72
2022/12/24 03:23:03;;;;;;;89.38;8.13;;;8.10;99.90;;;;;;5095414;28;20048;-74
2022/12/24 03:25:33;;;;;;;91.90;8.55;;;8.20;99.90;;;;;;5076733;28;20040;-72
2022/12/24 03:28:05;;;;;;;98.45;8.90;;;8.20;99.90;;;;;;5095453;28;20044;-74
2022/12/24 03:30:32;;;;;;;86.30;7.80;;;8.10;99.90;;;;;;5094468;28;20055;-68
2022/12/24 03:33:00;;;;;;;80.13;7.90;;;8.10;99.90;;;;;;5095377;28;20051;-71
2022/12/24 03:35:27;;;;;;;90.53;8.48;;;8.10;99.90;;;;;;5077379;28;20052;-73
2022/12/24 03:37:55;;;;;;;80.63;7.75;;;8.10;99.90;;;;;;5076963;28;20051;-72
2022/12/24 03:40:23;;;;;;;89.72;7.97;;;8.10;99.90;;;;;;5095212;28;20059;-72
2022/12/24 03:42:50;;;;;;;97.78;9.05;;;8.10;99.90;;;;;;5077695;28;20464;-71
2022/12/24 03:45:18;;;;;;;93.18;8.60;;;8.20;99.90;;;;;;5093151;28;20040;-72
2022/12/24 03:47:45;;;;;;;82.80;7.70;;;8.10;99.90;;;;;;5095252;28;20051;-72
2022/12/24 03:50:13;;;;;;;80.07;8.00;;;8.80;99.90;;;;;;5093954;28;20047;-72
2022/12/24 03:52:40;;;;;;;79.47;7.93;;;8.00;99.90;;;;;;5095418;28;20047;-73
2022/12/24 03:55:08;;;;;;;92.07;7.97;;;8.00;99.90;;;;;;5095360;28;20052;-72
2022/12/24 03:57:35;;;;;;;103.45;8.90;;;7.90;99.90;;;;;;5094042;28;20473;-72
2022/12/24 04:00:05;;;;;;;92.07;8.10;;;7.90;99.90;;;;;;5094935;28;20044;-71
2022/12/24 04:02:38;;;;;;;96.40;8.70;;;7.90;99.90;;;;;;5078017;28;20360;-71
2022/12/24 04:05:07;;;;;;;92.50;7.75;;;7.90;99.90;;;;;;5093738;28;20048;-72
2022/12/24 04:07:35;;;;;;;91.10;8.35;;;7.80;99.90;;;;;;5095375;28;20040;-73
2022/12/24 04:10:02;;;;;;;89.93;7.85;;;7.80;99.90;;;;;;5093728;28;20055;-71
2022/12/24 04:12:30;;;;;;;86.15;8.20;;;7.80;99.90;;;;;;5077145;28;20039;-71
2022/12/24 04:14:57;;;;;;;95.82;8.35;;;7.80;99.90;;;;;;5094605;28;20055;-71
2022/12/24 04:17:25;;;;;;;91.57;8.07;;;7.70;99.90;;;;;;5094012;28;20044;-70
2022/12/24 04:19:52;;;;;;;94.55;8.18;;;7.70;99.90;;;;;;5094767;28;20058;-71
2022/12/24 04:22:20;;;;;;;77.95;7.72;;;7.70;99.90;;;;;;5094713;28;20036;-71
2022/12/24 04:24:47;;;;;;;88.32;7.85;;;8.30;99.90;;;;;;5093496;28;20567;-72
2022/12/24 04:27:15;;;;;;;94.00;7.30;;;7.80;99.90;;;;;;5077144;28;20036;-72
2022/12/24 04:29:43;;;;;;;78.93;7.43;;;8.80;99.90;;;;;;5094695;28;20047;-71
2022/12/24 04:32:10;;;;;;;70.25;6.68;;;7.80;99.90;;;;;;5093567;28;20055;-71
2022/12/24 04:34:38;;;;;;;83.20;6.68;;;10.00;99.90;;;;;;5094628;28;20051;-72
2022/12/24 04:37:05;;;;;;;76.47;7.05;;;8.30;99.90;;;;;;5059273;28;20377;-72
2022/12/24 04:39:33;;;;;;;64.32;7.03;;;7.80;99.90;;;;;;5076990;28;20491;-71
2022/12/24 04:42:00;;;;;;;82.20;7.40;;;7.70;99.90;;;;;;5094694;28;20051;-71
2022/12/24 04:44:28;;;;;;;79.95;6.82;;;7.70;99.90;;;;;;5093342;28;20040;-71
2022/12/24 04:46:55;;;;;;;74.40;7.30;;;7.70;99.90;;;;;;5094597;28;20480;-71
2022/12/24 04:49:23;;;;;;;83.57;6.90;;;7.60;99.90;;;;;;5077049;28;20081;-72
2022/12/24 04:51:50;;;;;;;78.80;7.18;;;7.60;99.90;;;;;;5093479;28;20044;-72
2022/12/24 04:54:18;;;;;;;81.95;7.75;;;7.60;99.90;;;;;;5094469;28;20493;-72
2022/12/24 04:56:45;;;;;;;78.53;7.20;;;7.60;99.90;;;;;;5094156;28;20055;-71
2022/12/24 04:59:13;;;;;;;70.53;6.20;;;7.50;99.90;;;;;;5080755;28;20044;-73
2022/12/24 05:01:40;;;;;;;87.82;6.53;;;7.60;99.90;;;;;;5068097;28;20297;-72
2022/12/24 05:04:09;;;;;;;67.53;6.57;;;7.50;99.90;;;;;;5059404;28;20389;-70
2022/12/24 05:06:37;;;;;;;67.65;6.50;;;7.50;99.90;;;;;;5078209;28;20041;-71
2022/12/24 05:09:04;;;;;;;82.35;6.65;;;7.90;99.90;;;;;;5077741;28;20036;-72
2022/12/24 05:11:32;;;;;;;63.47;6.43;;;7.40;99.90;;;;;;5059155;28;20044;-72
2022/12/24 05:13:59;;;;;;;74.95;6.32;;;7.40;99.90;;;;;;5060475;28;20049;-72
2022/12/24 05:16:27;;;;;;;61.25;6.32;;;7.30;99.90;;;;;;5060601;28;20063;-72
2022/12/24 05:18:54;;;;;;;73.28;6.70;;;7.30;99.90;;;;;;5059305;28;20063;-72
2022/12/24 05:21:23;;;;;;;77.70;6.55;;;7.30;99.90;;;;;;5077851;28;20480;-72
2022/12/24 05:26:48;;;;;;;67.18;6.00;;;7.30;99.90;;;;;;5077476;28;20048;-72
2022/12/24 05:29:15;;;;;;;65.93;6.60;;;7.30;99.90;;;;;;5077529;28;20044;-72
2022/12/24 05:31:44;;;;;;;76.38;6.50;;;7.30;99.90;;;;;;5076333;28;20495;-72
2022/12/24 05:34:13;;;;;;;67.07;6.00;;;7.20;99.90;;;;;;5060023;28;20048;-72
2022/12/24 05:36:42;;;;;;;90.13;7.53;;;7.20;99.90;;;;;;5059242;28;20055;-72
2022/12/24 05:39:14;;;;;;;65.13;6.40;;;7.30;99.90;;;;;;5077490;28;20059;-72
2022/12/24 05:41:44;;;;;;;60.65;5.90;;;7.20;99.90;;;;;;5077450;28;20052;-73
2022/12/24 05:44:13;;;;;;;73.78;6.68;;;7.20;99.90;;;;;;5076278;28;20051;-72
2022/12/24 05:46:41;;;;;;;66.57;6.40;;;7.20;99.90;;;;;;5059654;28;20049;-72
2022/12/24 05:49:08;;;;;;;;;;;7.10;99.90;;;;;;5077597;28;20044;-72
2022/12/24 05:51:36;;;;;;;70.88;6.00;;;7.10;99.90;;;;;;5058781;28;19920;-70
2022/12/24 05:54:04;;;;;;;66.70;5.95;;;7.10;99.90;;;;;;5059671;28;20067;-70
2022/12/24 05:56:32;;;;;;;73.63;6.25;;;7.00;99.90;;;;;;5076983;28;20059;-72
2022/12/24 05:58:59;;;;;;;75.15;5.65;;;7.00;99.90;;;;;;5075818;28;20369;-72
2022/12/24 06:01:27;;;;;;;75.95;5.85;;;7.00;99.90;;;;;;5087753;28;20377;-72
2022/12/24 06:03:55;;;;;;;70.78;6.05;;;7.00;99.90;;;;;;5095882;28;20368;-71
2022/12/24 06:06:25;;;;;;;51.72;4.90;;;7.00;99.90;;;;;;5097386;28;20044;-70
2022/12/24 06:08:54;;;;;;;69.78;5.90;;;7.00;99.90;;;;;;5095994;28;20055;-73
2022/12/24 06:11:24;;;;;;;77.13;6.10;;;6.90;99.90;;;;;;5078211;28;20388;-73
2022/12/24 06:13:52;;;;;;;62.35;6.03;;;7.00;99.90;;;;;;5079616;28;20052;-73
2022/12/24 06:16:21;;;;;;;74.53;6.00;;;6.90;99.90;;;;;;5079421;28;20044;-70
2022/12/24 06:18:48;;;;;;;;;;;6.90;99.90;;;;;;5078371;28;20048;-71
2022/12/24 06:21:16;;;;;;;67.47;6.68;;;6.90;99.90;;;;;;5097046;28;19927;-73
2022/12/24 06:23:44;;;;;;;;;;;6.90;99.90;;;;;;5078366;28;20044;-71
2022/12/24 06:26:18;;;;;;;67.78;6.03;;;6.80;99.90;;;;;;5096837;28;20363;-70
2022/12/24 06:28:46;;;;;;;67.20;5.63;;;6.80;99.90;;;;;;5079473;28;20051;-71
2022/12/24 06:31:17;;;;;;;68.53;5.72;;;6.80;99.90;;;;;;5077677;28;20060;-72
2022/12/24 06:33:45;;;;;;;77.93;6.10;;;6.80;99.90;;;;;;5079162;28;20048;-71
2022/12/24 06:36:15;;;;;;;70.47;6.55;;;6.80;99.90;;;;;;5079049;28;20047;-73
2022/12/24 06:38:46;;;;;;;68.57;6.10;;;6.80;99.90;;;;;;5095269;28;20052;-71
2022/12/24 06:41:14;;;;;;;73.38;6.45;;;6.70;99.90;;;;;;5096327;28;20048;-71
2022/12/24 06:43:49;;;;;;;79.43;6.35;;;6.70;99.90;;;;;;5095104;28;20059;-70
2022/12/24 06:46:18;;;;;;;85.40;7.43;;;6.70;99.90;;;;;;5096332;28;20461;-72
2022/12/24 06:48:46;;;;;;;65.30;6.53;;;6.80;99.90;;;;;;5078484;28;20036;-72
2022/12/24 06:51:14;;;;;;;;;;;6.80;99.90;;;;;;5077824;28;20058;-73
2022/12/24 06:53:42;;;;;;;;;;;6.70;99.90;;;;;;5096594;28;19930;-73
2022/12/24 06:56:11;;;;;;;79.53;5.75;;;6.70;99.90;;;;;;5078925;28;19920;-73
2022/12/24 06:58:39;;;;;;;76.00;6.55;;;6.70;99.90;;;;;;5094889;28;20040;-72
2022/12/24 07:01:08;;;;;;;;;;;6.70;99.90;;;;;;5078732;28;20355;-71
2022/12/24 07:03:36;;;;;;;78.20;7.15;;;6.70;99.90;;;;;;5094924;28;20226;-73
2022/12/24 07:06:04;;;;;;;83.93;6.85;;;6.70;99.90;;;;;;5078745;28;20063;-71
2022/12/24 07:08:35;;;;;;;65.53;6.60;;;6.70;99.90;;;;;;5095797;28;20036;-71
2022/12/24 07:11:03;;;;;;;73.38;6.20;;;6.70;99.90;;;;;;5077383;28;20048;-73
2022/12/24 07:13:31;;;;;;;77.32;5.93;;;6.70;99.90;;;;;;5078251;28;20114;-71
2022/12/24 07:16:01;;;;;;;68.57;6.00;;;6.80;99.90;;;;;;5078047;28;20067;-71
2022/12/24 07:18:29;;;;;;;87.47;6.80;;;6.70;99.90;;;;;;5094502;28;20055;-73
2022/12/24 07:20:57;;;;;;;82.05;5.85;;;6.70;99.90;;;;;;5078081;28;20377;-71
2022/12/24 07:23:25;;;;;;;77.88;6.72;;;6.60;99.90;;;;;;5060236;28;20407;-71
2022/12/24 07:25:52;;;;;;;76.75;6.38;;;6.60;99.90;;;;;;5077958;28;20036;-72
2022/12/24 07:28:20;;;;;;;86.60;6.15;;;6.60;99.90;;;;;;5095621;28;20051;-72
2022/12/24 07:30:55;;;;;;;83.13;6.35;;;6.50;99.90;;;;;;5076524;28;20412;-71
2022/12/24 07:33:24;;;;;;;73.50;6.45;;;6.50;99.90;;;;;;5077711;28;20051;-72
2022/12/24 07:36:04;;;;;;;75.78;6.22;;;6.50;99.90;;;;;;5098463;28;20048;-70
2022/12/24 07:38:32;;;;;;;88.65;6.60;;;6.50;99.90;;;;;;5114521;28;20044;-72
2022/12/24 07:41:00;;;;;;;79.05;6.75;;;6.60;99.90;;;;;;5115767;28;20361;-71
2022/12/24 07:43:27;;;;;;;66.88;5.85;;;6.50;99.90;;;;;;5114509;28;20205;-71
2022/12/24 07:45:56;;;;;;;;;;;6.50;99.90;;;;;;5115814;28;20051;-73
2022/12/24 07:48:25;;;;;;;78.70;6.70;;;6.50;99.90;;;;;;5097935;28;20383;-72
2022/12/24 07:50:52;;;;;;;70.50;6.53;;;6.60;99.90;;;;;;5114538;28;20372;-71
2022/12/24 07:53:20;;;;;;;75.20;6.32;;;6.60;99.90;;;;;;5115613;28;20391;-72
2022/12/24 07:55:48;;;;;;;79.45;6.53;;;6.50;99.90;;;;;;5115523;28;20043;-71
2022/12/24 07:58:16;;;;;;;64.60;6.72;;;6.50;99.90;;;;;;5114166;28;20051;-70
2022/12/24 08:00:43;;;;;;;71.40;6.72;;;6.50;99.90;;;;;;5097661;28;20051;-70
2022/12/24 08:03:16;;;;;;;73.35;7.95;;;6.40;99.90;;;;;;5097672;28;20043;-71
2022/12/24 08:05:45;;;;;;;85.20;7.93;;;6.50;99.90;;;;;;5115267;28;20368;-72
2022/12/24 08:08:12;;;;;;;;;;;6.50;99.90;;;;;;5115619;28;20047;-73
2022/12/24 08:10:44;;;;;;;72.18;7.93;;;6.40;99.90;;;;;;5096560;28;19928;-72
2022/12/24 08:13:13;;;;;;;76.38;7.47;;;6.50;99.90;;;;;;5115446;28;20044;-71
2022/12/24 08:15:40;;;;;;;75.35;7.80;;;6.40;99.90;;;;;;5115047;28;20108;-71
2022/12/24 08:18:09;;;;;;;70.38;7.25;;;6.40;99.90;;;;;;5113646;28;20502;-74
2022/12/24 08:20:40;;;;;;;83.03;8.65;;;6.40;99.90;;;;;;5079977;28;20055;-72
2022/12/24 08:23:08;;;;;;;68.97;7.00;;;6.40;99.90;;;;;;5114750;28;20043;-71
2022/12/24 08:25:36;;;;;;;90.45;9.23;;;6.30;99.90;;;;;;5113577;28;20047;-72
2022/12/24 08:28:04;;;;;;;;;;;6.40;99.90;;;;;;5115351;28;20062;-70
2022/12/24 08:30:32;;;;;;;89.20;13.77;;;6.30;99.90;;;;;;5114163;28;19920;-71
2022/12/24 08:33:00;;;;;;;88.00;10.38;;;6.30;99.90;;;;;;5099233;28;20039;-72
2022/12/24 08:35:28;;;;;;;83.20;9.13;;;8.10;99.90;;;;;;5084161;28;20055;-71
2022/12/24 08:37:55;;;;;;;73.97;9.77;;;6.30;99.90;;;;;;5099850;28;20052;-73
2022/12/24 08:40:23;;;;;;;81.53;8.60;;;6.30;99.90;;;;;;5118816;28;20044;-73
2022/12/24 08:42:50;;;;;;;87.72;8.32;;;6.30;99.90;;;;;;5101052;28;20044;-71
2022/12/24 08:45:19;;;;;;;80.10;7.95;;;6.30;99.90;;;;;;5117462;28;20514;-71
2022/12/24 08:47:46;;;;;;;;;;;6.20;99.90;;;;;;5100743;28;20052;-72
2022/12/24 08:50:14;;;;;;;82.35;8.60;;;6.30;99.90;;;;;;5117468;28;20367;-72
2022/12/24 08:52:41;;;;;;;72.53;7.53;;;6.20;99.90;;;;;;5118620;28;20044;-71
2022/12/24 08:55:08;;;;;;;64.32;6.85;;;6.20;99.90;;;;;;5118575;28;20047;-73
2022/12/24 08:57:36;;;;;;;70.70;7.70;;;6.10;99.90;;;;;;5082960;28;20066;-71
2022/12/24 09:00:05;;;;;;;75.90;7.22;;;6.10;99.90;;;;;;5100675;28;20052;-72
2022/12/24 09:02:33;;;;;;;70.63;8.02;;;6.10;99.90;;;;;;5083150;28;20148;-72
2022/12/24 09:05:01;;;;;;;;;;;6.20;99.90;;;;;;5100285;28;20055;-72
2022/12/24 09:07:29;;;;;;;74.88;7.50;;;4.70;99.90;;;;;;5100943;28;19926;-71
2022/12/24 09:09:56;;;;;;;55.67;7.03;;;6.00;99.90;;;;;;5117442;28;20047;-72
2022/12/24 09:12:24;;;;;;;73.63;7.00;;;6.00;99.90;;;;;;5083804;28;20052;-71
2022/12/24 09:14:53;;;;;;;79.07;7.03;;;5.90;99.90;;;;;;5118364;28;20048;-69
2022/12/24 09:17:29;;;;;;;64.57;7.23;;;5.90;99.90;;;;;;5084113;28;20047;-73
2022/12/24 09:19:56;;;;;;;58.28;6.78;;;5.90;99.90;;;;;;5100579;28;20055;-72
2022/12/24 09:22:24;;;;;;;54.88;6.47;;;6.00;99.90;;;;;;5100420;28;20055;-70
2022/12/24 09:24:54;;;;;;;66.40;8.02;;;6.00;99.90;;;;;;5117080;28;20035;-71
2022/12/24 09:27:22;;;;;;;80.50;9.02;;;6.00;99.90;;;;;;5118161;28;20472;-71
2022/12/24 09:29:49;;;;;;;73.45;8.02;;;6.00;99.90;;;;;;5118179;28;20051;-70
2022/12/24 09:32:17;;;;;;;74.28;6.97;;;6.10;99.90;;;;;;5117079;28;20364;-74
2022/12/24 09:34:44;;;;;;;60.65;7.70;;;6.10;99.90;;;;;;5117468;28;20054;-72
2022/12/24 09:37:12;;;;;;;66.53;7.10;;;6.10;99.90;;;;;;5099091;28;20055;-72
2022/12/24 09:39:39;;;;;;;71.03;6.90;;;6.90;99.90;;;;;;5099994;28;20052;-72
2022/12/24 09:42:29;;;;;;;76.47;8.20;;;6.20;99.90;;;;;;5099889;28;20043;-72
2022/12/24 09:45:20;;;;;;;49.92;6.50;;;6.20;99.90;;;;;;5099006;28;20046;-71
2022/12/24 09:47:58;;;;;;;77.55;7.30;;;6.20;99.90;;;;;;5117822;28;20050;-72
2022/12/24 09:50:31;;;;;;;58.58;6.53;;;6.30;99.90;;;;;;5116750;28;20468;-70
2022/12/24 09:53:06;;;;;;;69.45;6.47;;;6.40;99.90;;;;;;5100267;28;20385;-72
2022/12/24 09:55:42;;;;;;;59.83;6.30;;;6.40;99.90;;;;;;5099962;28;20036;-72
2022/12/24 09:58:32;;;;;;;61.45;6.35;;;6.40;99.90;;;;;;5098506;28;20066;-70
2022/12/24 10:01:00;;;;;;;76.10;6.65;;;6.60;99.90;;;;;;5100235;28;20044;-72
2022/12/24 10:03:28;;;;;;;53.53;6.15;;;8.00;99.90;;;;;;5116447;28;20066;-74
2022/12/24 10:06:15;;;;;;;59.30;6.25;;;6.70;99.90;;;;;;5117371;28;20055;-75
2022/12/24 10:09:03;;;;;;;64.05;6.30;;;6.80;99.90;;;;;;5082833;28;20046;-75
2022/12/24 10:11:50;;;;;;;60.65;6.03;;;6.90;99.90;;;;;;5098404;28;20055;-71
2022/12/24 10:14:43;;;;;;;65.90;6.65;;;7.00;99.90;;;;;;5099963;28;20345;-73
2022/12/24 10:17:28;;;;;;;43.65;7.43;;;7.00;99.90;;;;;;5115997;28;20043;-73
2022/12/24 10:20:21;;;;;;;57.78;7.00;;;7.20;99.90;;;;;;5099904;28;20055;-71
2022/12/24 10:22:56;;;;;;;55.80;6.00;;;7.20;99.90;;;;;;5098670;28;20043;-73
2022/12/24 10:25:34;;;;;;;51.55;6.60;;;7.40;99.90;;;;;;5097787;28;20063;-71
2022/12/24 10:28:07;;;;;;;54.75;7.10;;;7.30;99.90;;;;;;5098923;28;20036;-73
2022/12/24 10:30:35;;;;;;;64.85;6.68;;;7.30;99.90;;;;;;5097840;28;20036;-70
2022/12/24 10:33:15;;;;;;;55.65;6.68;;;7.40;99.90;;;;;;5098905;28;20043;-72
2022/12/24 10:35:49;;;;;;;56.33;5.13;;;7.40;99.90;;;;;;5081555;28;20051;-71
2022/12/24 10:38:16;;;;;;;72.57;5.53;;;7.50;99.90;;;;;;5115490;28;20054;-71
2022/12/24 10:40:47;;;;;;;54.60;5.13;;;7.50;99.90;;;;;;5116555;28;20043;-72
2022/12/24 10:43:19;;;;;;;53.55;5.10;;;7.50;99.90;;;;;;5116240;28;20040;-71
2022/12/24 10:45:59;;;;;;;48.75;5.38;;;8.90;99.90;;;;;;5116336;28;20062;-73
2022/12/24 10:48:42;;;;;;;56.53;8.30;;;7.50;99.90;;;;;;5116426;28;20388;-72
2022/12/24 10:51:40;;;;;;;43.80;6.50;;;8.10;99.90;;;;;;5115012;28;20043;-70
2022/12/24 10:54:17;;;;;;;57.35;6.45;;;7.60;99.90;;;;;;5115900;28;20055;-69
2022/12/24 10:57:01;;;;;;;48.95;5.88;;;7.70;99.90;;;;;;5115016;28;20479;-70
2022/12/24 10:59:38;;;;;;;51.20;5.18;;;7.80;99.90;;;;;;5116363;28;20368;-72
2022/12/24 11:02:25;;;;;;;64.85;5.90;;;7.90;99.90;;;;;;5115946;28;20051;-71
2022/12/24 11:04:53;;;;;;;57.25;6.07;;;8.00;99.90;;;;;;5114667;28;20054;-73
2022/12/24 11:07:22;;;;;;;46.63;4.88;;;8.00;99.90;;;;;;5097829;28;20055;-69
2022/12/24 11:09:54;;;;;;;45.35;4.47;;;8.60;99.90;;;;;;5115871;28;20063;-71
2022/12/24 11:12:25;;;;;;;52.58;5.03;;;8.10;99.90;;;;;;5098245;28;20040;-71
2022/12/24 11:15:04;;;;;;;45.00;5.20;;;8.20;99.90;;;;;;5115872;28;20040;-69
2022/12/24 11:17:33;;;;;;;33.95;5.07;;;8.20;99.90;;;;;;5096999;28;20047;-72
2022/12/24 11:20:02;;;;;;;52.10;5.97;;;8.30;99.90;;;;;;5097477;28;20063;-72
2022/12/24 11:22:32;;;;;;;54.90;6.28;;;8.90;99.90;;;;;;5097849;28;20091;-70
2022/12/24 11:25:01;;;;;;;53.38;5.45;;;8.40;99.90;;;;;;5079767;28;20451;-71
2022/12/24 11:27:33;;;;;;;53.00;5.63;;;8.50;99.90;;;;;;5115708;28;20051;-71
2022/12/24 11:30:30;;;;;;;68.45;6.45;;;8.50;99.90;;;;;;5096687;28;20067;-73
2022/12/24 11:33:02;;;;;;;57.45;5.95;;;8.60;99.90;;;;;;5078339;28;20052;-72
2022/12/24 11:35:32;;;;;;;60.05;6.28;;;8.70;99.90;;;;;;5115366;28;20044;-73
2022/12/24 11:37:59;;;;;;;61.28;6.28;;;8.90;99.90;;;;;;5114567;28;20050;-70
2022/12/24 11:40:41;;;;;;;60.45;6.20;;;8.80;99.90;;;;;;5115418;28;20054;-72
2022/12/24 11:43:18;;;;;;;65.95;6.43;;;9.00;99.90;;;;;;5115319;28;20396;-70
2022/12/24 11:45:56;;;;;;;52.58;6.07;;;8.90;99.90;;;;;;5115252;28;20047;-71
2022/12/24 11:48:29;;;;;;;65.47;6.40;;;9.00;99.90;;;;;;5097275;28;20468;-70
2022/12/24 11:51:02;;;;;;;65.97;6.57;;;9.10;99.90;;;;;;5114265;28;20047;-73
2022/12/24 11:53:37;;;;;;;57.03;6.10;;;9.70;99.90;;;;;;5115379;28;20039;-72
2022/12/24 11:56:13;;;;;;;65.32;6.65;;;9.20;99.90;;;;;;5097483;28;20046;-71
2022/12/24 11:58:55;;;;;;;56.70;6.78;;;9.50;99.90;;;;;;5096258;28;20056;-72
2022/12/24 12:01:44;;;;;;;57.72;6.53;;;9.80;99.90;;;;;;5097025;28;20058;-72
2022/12/24 12:04:21;;;;;;;53.55;6.10;;;9.40;99.90;;;;;;5113757;28;20044;-72
2022/12/24 12:07:05;;;;;;;62.35;6.38;;;9.40;99.90;;;;;;5096285;28;20063;-72
2022/12/24 12:09:46;;;;;;;63.00;6.30;;;10.10;99.90;;;;;;5114903;28;20464;-73
2022/12/24 12:12:20;;;;;;;64.90;7.70;;;9.50;99.90;;;;;;5096118;28;20040;-69
2022/12/24 12:14:52;;;;;;;64.18;7.03;;;9.60;99.90;;;;;;5114910;28;20039;-69
2022/12/24 12:17:50;;;;;;;60.15;6.47;;;9.60;99.90;;;;;;5095877;28;20494;-72
2022/12/24 12:20:26;;;;;;;61.53;6.60;;;9.60;99.90;;;;;;5086861;28;20047;-71
2022/12/24 12:23:12;;;;;;;66.38;7.00;;;9.60;99.90;;;;;;5114518;28;20048;-72
2022/12/24 12:26:03;;;;;;;70.88;7.28;;;9.70;99.90;;;;;;5113456;28;20353;-74
2022/12/24 12:28:40;;;;;;;66.95;7.28;;;9.80;99.90;;;;;;5096398;28;20047;-75
2022/12/24 12:31:29;;;;;;;74.57;7.40;;;10.20;99.90;;;;;;5113705;28;20043;-74
2022/12/24 12:34:10;;;;;;;78.13;7.78;;;10.10;99.90;;;;;;5095369;28;20487;-72
2022/12/24 12:36:49;;;;;;;61.42;6.65;;;9.90;99.90;;;;;;5094307;28;20050;-75
2022/12/24 12:39:22;;;;;;;67.68;7.30;;;10.00;99.90;;;;;;5107175;28;20062;-75
2022/12/24 12:42:05;;;;;;;63.30;7.03;;;10.90;99.90;;;;;;5096767;28;20052;-77
2022/12/24 12:44:35;;;;;;;70.85;7.22;;;10.10;99.90;;;;;;5095936;28;20055;-73
2022/12/24 12:47:11;;;;;;;71.13;7.80;;;10.10;99.90;;;;;;5113965;28;20044;-71
2022/12/24 12:50:00;;;;;;;69.32;7.53;;;10.90;99.90;;;;;;5096486;28;20055;-75
2022/12/24 12:52:52;;;;;;;58.53;6.63;;;10.20;99.90;;;;;;5114442;28;20040;-75
2022/12/24 12:55:41;;;;;;;64.65;6.40;;;10.30;99.90;;;;;;5113208;28;20050;-77
2022/12/24 12:58:20;;;;;;;68.28;6.53;;;10.20;99.90;;;;;;5095734;28;20345;-74
2022/12/24 13:00:53;;;;;;;81.25;7.93;;;10.30;99.90;;;;;;5114187;28;20051;-77
2022/12/24 13:03:30;;;;;;;64.85;6.85;;;10.30;99.90;;;;;;5113411;28;20046;-74
2022/12/24 13:06:35;;;;;;;55.47;6.63;;;10.30;99.90;;;;;;5096975;28;20050;-75
2022/12/24 13:09:39;;;;;;;48.50;6.38;;;10.30;99.90;;;;;;5097445;28;20375;-78
2022/12/24 13:12:28;;;;;;;65.05;6.55;;;10.30;99.90;;;;;;5113536;28;20478;-75
2022/12/24 13:15:24;;;;;;;72.78;6.68;;;10.30;99.90;;;;;;5115201;28;20050;-72
2022/12/24 13:17:55;;;;;;;69.57;6.97;;;10.30;99.90;;;;;;5114545;28;20055;-74
2022/12/24 13:20:28;;;;;;;58.17;6.85;;;10.30;99.90;;;;;;5100534;28;20383;-75
2022/12/24 13:23:00;;;;;;;71.88;7.80;;;10.30;99.90;;;;;;5100559;28;20043;-77
2022/12/24 13:25:40;;;;;;;67.28;6.60;;;10.30;99.90;;;;;;5099468;28;20048;-76